sensor_id;sensor_type;location;lat;lon;timestamp;P1;durP1;ratioP1;P2;durP2;ratioP2
10550;SDS011;5324;50.684;3.862;2023-05-07T00:00:46;6.10;;;3.85;;
10550;SDS011;5324;50.684;3.862;2023-05-07T00:03:13;7.60;;;3.63;;
10550;SDS011;5324;50.684;3.862;2023-05-07T00:05:39;6.63;;;3.80;;
10550;SDS011;5324;50.684;3.862;2023-05-07T00:08:06;4.63;;;3.90;;
10550;SDS011;5324;50.684;3.862;2023-05-07T00:10:32;7.28;;;3.92;;
10550;SDS011;5324;50.684;3.862;2023-05-07T00:12:58;6.80;;;3.80;;
10550;SDS011;5324;50.684;3.862;2023-05-07T00:15:24;6.78;;;3.35;;
10550;SDS011;5324;50.684;3.862;2023-05-07T00:17:50;4.90;;;3.78;;
10550;SDS011;5324;50.684;3.862;2023-05-07T00:20:16;4.50;;;3.05;;
10550;SDS011;5324;50.684;3.862;2023-05-07T00:22:42;6.45;;;3.95;;
10550;SDS011;5324;50.684;3.862;2023-05-07T00:25:08;5.55;;;4.15;;
10550;SDS011;5324;50.684;3.862;2023-05-07T00:27:35;9.98;;;4.43;;
10550;SDS011;5324;50.684;3.862;2023-05-07T00:30:01;8.85;;;3.85;;
10550;SDS011;5324;50.684;3.862;2023-05-07T00:32:27;5.20;;;3.95;;
10550;SDS011;5324;50.684;3.862;2023-05-07T00:34:53;6.35;;;3.42;;
10550;SDS011;5324;50.684;3.862;2023-05-07T00:37:19;6.40;;;3.80;;
10550;SDS011;5324;50.684;3.862;2023-05-07T00:39:45;6.88;;;4.00;;
10550;SDS011;5324;50.684;3.862;2023-05-07T00:42:11;5.30;;;3.75;;
10550;SDS011;5324;50.684;3.862;2023-05-07T00:44:37;6.22;;;3.67;;
10550;SDS011;5324;50.684;3.862;2023-05-07T00:47:03;5.43;;;3.40;;
10550;SDS011;5324;50.684;3.862;2023-05-07T00:49:35;6.70;;;3.80;;
10550;SDS011;5324;50.684;3.862;2023-05-07T00:52:03;4.68;;;3.45;;
10550;SDS011;5324;50.684;3.862;2023-05-07T00:54:29;6.35;;;3.72;;
10550;SDS011;5324;50.684;3.862;2023-05-07T00:56:55;6.07;;;3.53;;
10550;SDS011;5324;50.684;3.862;2023-05-07T00:59:21;4.22;;;3.42;;
10550;SDS011;5324;50.684;3.862;2023-05-07T01:01:47;4.47;;;3.40;;
10550;SDS011;5324;50.684;3.862;2023-05-07T01:04:13;4.60;;;3.40;;
10550;SDS011;5324;50.684;3.862;2023-05-07T01:06:39;9.73;;;3.50;;
10550;SDS011;5324;50.684;3.862;2023-05-07T01:09:06;6.13;;;3.60;;
10550;SDS011;5324;50.684;3.862;2023-05-07T01:11:32;5.22;;;3.60;;
10550;SDS011;5324;50.684;3.862;2023-05-07T01:13:58;5.07;;;3.30;;
10550;SDS011;5324;50.684;3.862;2023-05-07T01:16:24;8.23;;;3.47;;
10550;SDS011;5324;50.684;3.862;2023-05-07T01:18:51;6.57;;;4.03;;
10550;SDS011;5324;50.684;3.862;2023-05-07T01:21:18;7.40;;;3.85;;
10550;SDS011;5324;50.684;3.862;2023-05-07T01:23:47;4.63;;;3.70;;
10550;SDS011;5324;50.684;3.862;2023-05-07T01:26:13;7.95;;;4.18;;
10550;SDS011;5324;50.684;3.862;2023-05-07T01:28:39;6.35;;;3.60;;
10550;SDS011;5324;50.684;3.862;2023-05-07T01:31:05;6.20;;;3.83;;
10550;SDS011;5324;50.684;3.862;2023-05-07T01:33:32;5.18;;;3.80;;
10550;SDS011;5324;50.684;3.862;2023-05-07T01:35:59;5.85;;;4.00;;
10550;SDS011;5324;50.684;3.862;2023-05-07T01:38:27;5.95;;;4.03;;
10550;SDS011;5324;50.684;3.862;2023-05-07T01:40:54;6.82;;;4.07;;
10550;SDS011;5324;50.684;3.862;2023-05-07T01:43:20;7.63;;;4.07;;
10550;SDS011;5324;50.684;3.862;2023-05-07T01:45:46;6.78;;;3.55;;
10550;SDS011;5324;50.684;3.862;2023-05-07T01:48:14;10.38;;;4.10;;
10550;SDS011;5324;50.684;3.862;2023-05-07T01:50:40;6.10;;;3.65;;
10550;SDS011;5324;50.684;3.862;2023-05-07T01:53:07;8.13;;;4.50;;
10550;SDS011;5324;50.684;3.862;2023-05-07T01:55:33;6.38;;;3.97;;
10550;SDS011;5324;50.684;3.862;2023-05-07T01:57:59;7.07;;;4.25;;
10550;SDS011;5324;50.684;3.862;2023-05-07T02:00:25;6.00;;;3.83;;
10550;SDS011;5324;50.684;3.862;2023-05-07T02:02:51;7.15;;;4.10;;
10550;SDS011;5324;50.684;3.862;2023-05-07T02:05:18;7.20;;;3.90;;
10550;SDS011;5324;50.684;3.862;2023-05-07T02:07:44;5.20;;;3.83;;
10550;SDS011;5324;50.684;3.862;2023-05-07T02:10:09;5.50;;;4.00;;
10550;SDS011;5324;50.684;3.862;2023-05-07T02:12:35;6.57;;;4.32;;
10550;SDS011;5324;50.684;3.862;2023-05-07T02:15:02;6.60;;;3.70;;
10550;SDS011;5324;50.684;3.862;2023-05-07T02:17:28;6.88;;;3.80;;
10550;SDS011;5324;50.684;3.862;2023-05-07T02:19:56;4.40;;;3.83;;
10550;SDS011;5324;50.684;3.862;2023-05-07T02:22:22;4.70;;;4.28;;
10550;SDS011;5324;50.684;3.862;2023-05-07T02:24:48;5.90;;;4.07;;
10550;SDS011;5324;50.684;3.862;2023-05-07T02:27:14;9.23;;;4.10;;
10550;SDS011;5324;50.684;3.862;2023-05-07T02:29:40;5.43;;;3.87;;
10550;SDS011;5324;50.684;3.862;2023-05-07T02:32:06;4.10;;;3.70;;
10550;SDS011;5324;50.684;3.862;2023-05-07T02:34:32;6.97;;;3.80;;
10550;SDS011;5324;50.684;3.862;2023-05-07T02:36:59;6.57;;;3.73;;
10550;SDS011;5324;50.684;3.862;2023-05-07T02:39:24;5.77;;;3.70;;
10550;SDS011;5324;50.684;3.862;2023-05-07T02:41:50;6.30;;;4.70;;
10550;SDS011;5324;50.684;3.862;2023-05-07T02:44:16;6.40;;;3.40;;
10550;SDS011;5324;50.684;3.862;2023-05-07T02:46:42;7.67;;;3.83;;
10550;SDS011;5324;50.684;3.862;2023-05-07T02:49:08;6.27;;;4.13;;
10550;SDS011;5324;50.684;3.862;2023-05-07T02:51:35;4.80;;;3.43;;
10550;SDS011;5324;50.684;3.862;2023-05-07T02:54:01;6.77;;;3.90;;
10550;SDS011;5324;50.684;3.862;2023-05-07T02:56:27;6.17;;;3.47;;
10550;SDS011;5324;50.684;3.862;2023-05-07T02:58:53;5.33;;;3.93;;
10550;SDS011;5324;50.684;3.862;2023-05-07T03:01:19;4.67;;;4.00;;
10550;SDS011;5324;50.684;3.862;2023-05-07T03:03:45;4.07;;;3.40;;
10550;SDS011;5324;50.684;3.862;2023-05-07T03:06:11;4.13;;;3.50;;
10550;SDS011;5324;50.684;3.862;2023-05-07T03:08:37;5.53;;;3.80;;
10550;SDS011;5324;50.684;3.862;2023-05-07T03:11:03;5.43;;;3.63;;
10550;SDS011;5324;50.684;3.862;2023-05-07T03:13:29;6.33;;;3.70;;
10550;SDS011;5324;50.684;3.862;2023-05-07T03:15:55;5.13;;;3.33;;
10550;SDS011;5324;50.684;3.862;2023-05-07T03:18:21;4.07;;;3.33;;
10550;SDS011;5324;50.684;3.862;2023-05-07T03:20:48;6.37;;;3.87;;
10550;SDS011;5324;50.684;3.862;2023-05-07T03:23:14;5.27;;;3.70;;
10550;SDS011;5324;50.684;3.862;2023-05-07T03:25:40;5.37;;;3.27;;
10550;SDS011;5324;50.684;3.862;2023-05-07T03:28:06;5.00;;;3.63;;
10550;SDS011;5324;50.684;3.862;2023-05-07T03:30:32;5.55;;;4.03;;
10550;SDS011;5324;50.684;3.862;2023-05-07T03:32:58;8.68;;;4.43;;
10550;SDS011;5324;50.684;3.862;2023-05-07T03:35:24;5.13;;;3.92;;
10550;SDS011;5324;50.684;3.862;2023-05-07T03:37:51;5.03;;;3.73;;
10550;SDS011;5324;50.684;3.862;2023-05-07T03:40:17;6.80;;;4.13;;
10550;SDS011;5324;50.684;3.862;2023-05-07T03:42:43;4.77;;;3.53;;
10550;SDS011;5324;50.684;3.862;2023-05-07T03:45:09;7.17;;;4.10;;
10550;SDS011;5324;50.684;3.862;2023-05-07T03:47:35;6.90;;;3.63;;
10550;SDS011;5324;50.684;3.862;2023-05-07T03:50:01;8.05;;;3.83;;
10550;SDS011;5324;50.684;3.862;2023-05-07T03:52:27;4.88;;;3.92;;
10550;SDS011;5324;50.684;3.862;2023-05-07T03:54:53;6.17;;;4.47;;
10550;SDS011;5324;50.684;3.862;2023-05-07T03:57:19;7.07;;;4.23;;
10550;SDS011;5324;50.684;3.862;2023-05-07T03:59:45;4.57;;;3.57;;
10550;SDS011;5324;50.684;3.862;2023-05-07T04:02:11;5.87;;;3.53;;
10550;SDS011;5324;50.684;3.862;2023-05-07T04:04:37;4.93;;;3.80;;
10550;SDS011;5324;50.684;3.862;2023-05-07T04:07:03;4.57;;;3.60;;
10550;SDS011;5324;50.684;3.862;2023-05-07T04:09:29;4.43;;;3.40;;
10550;SDS011;5324;50.684;3.862;2023-05-07T04:11:55;6.10;;;3.47;;
10550;SDS011;5324;50.684;3.862;2023-05-07T04:14:21;4.97;;;3.43;;
10550;SDS011;5324;50.684;3.862;2023-05-07T04:16:47;4.30;;;3.77;;
10550;SDS011;5324;50.684;3.862;2023-05-07T04:19:13;4.90;;;3.70;;
10550;SDS011;5324;50.684;3.862;2023-05-07T04:21:39;5.57;;;3.42;;
10550;SDS011;5324;50.684;3.862;2023-05-07T04:24:05;5.33;;;3.70;;
10550;SDS011;5324;50.684;3.862;2023-05-07T04:26:32;6.15;;;3.80;;
10550;SDS011;5324;50.684;3.862;2023-05-07T04:28:58;4.27;;;3.70;;
10550;SDS011;5324;50.684;3.862;2023-05-07T04:31:24;5.63;;;4.30;;
10550;SDS011;5324;50.684;3.862;2023-05-07T04:33:51;4.97;;;4.47;;
10550;SDS011;5324;50.684;3.862;2023-05-07T04:36:17;7.33;;;5.30;;
10550;SDS011;5324;50.684;3.862;2023-05-07T04:38:43;6.27;;;5.13;;
10550;SDS011;5324;50.684;3.862;2023-05-07T04:41:12;8.07;;;5.37;;
10550;SDS011;5324;50.684;3.862;2023-05-07T04:43:38;7.33;;;4.90;;
10550;SDS011;5324;50.684;3.862;2023-05-07T04:46:05;8.50;;;6.20;;
10550;SDS011;5324;50.684;3.862;2023-05-07T04:48:31;8.17;;;5.97;;
10550;SDS011;5324;50.684;3.862;2023-05-07T04:50:57;8.30;;;5.97;;
10550;SDS011;5324;50.684;3.862;2023-05-07T04:53:23;8.57;;;6.00;;
10550;SDS011;5324;50.684;3.862;2023-05-07T04:55:49;8.10;;;6.40;;
10550;SDS011;5324;50.684;3.862;2023-05-07T04:58:20;9.97;;;6.70;;
10550;SDS011;5324;50.684;3.862;2023-05-07T05:00:46;8.47;;;6.27;;
10550;SDS011;5324;50.684;3.862;2023-05-07T05:03:12;9.93;;;5.97;;
10550;SDS011;5324;50.684;3.862;2023-05-07T05:05:38;7.73;;;6.00;;
10550;SDS011;5324;50.684;3.862;2023-05-07T05:08:04;8.93;;;6.35;;
10550;SDS011;5324;50.684;3.862;2023-05-07T05:10:30;7.93;;;6.60;;
10550;SDS011;5324;50.684;3.862;2023-05-07T05:12:56;7.57;;;5.93;;
10550;SDS011;5324;50.684;3.862;2023-05-07T05:15:22;12.27;;;6.20;;
10550;SDS011;5324;50.684;3.862;2023-05-07T05:17:48;9.97;;;6.10;;
10550;SDS011;5324;50.684;3.862;2023-05-07T05:20:14;10.97;;;5.87;;
10550;SDS011;5324;50.684;3.862;2023-05-07T05:22:41;8.83;;;6.07;;
10550;SDS011;5324;50.684;3.862;2023-05-07T05:25:07;10.68;;;5.60;;
10550;SDS011;5324;50.684;3.862;2023-05-07T05:27:34;6.70;;;5.20;;
10550;SDS011;5324;50.684;3.862;2023-05-07T05:30:00;6.33;;;4.93;;
10550;SDS011;5324;50.684;3.862;2023-05-07T05:32:26;8.73;;;5.78;;
10550;SDS011;5324;50.684;3.862;2023-05-07T05:34:52;12.57;;;6.18;;
10550;SDS011;5324;50.684;3.862;2023-05-07T05:37:18;8.32;;;5.88;;
10550;SDS011;5324;50.684;3.862;2023-05-07T05:39:44;9.13;;;5.90;;
10550;SDS011;5324;50.684;3.862;2023-05-07T05:42:10;8.88;;;5.95;;
10550;SDS011;5324;50.684;3.862;2023-05-07T05:44:36;11.15;;;6.28;;
10550;SDS011;5324;50.684;3.862;2023-05-07T05:47:02;8.47;;;5.40;;
10550;SDS011;5324;50.684;3.862;2023-05-07T05:49:28;7.10;;;5.60;;
10550;SDS011;5324;50.684;3.862;2023-05-07T05:51:54;9.23;;;6.00;;
10550;SDS011;5324;50.684;3.862;2023-05-07T05:54:21;7.22;;;6.13;;
10550;SDS011;5324;50.684;3.862;2023-05-07T05:56:47;8.65;;;5.72;;
10550;SDS011;5324;50.684;3.862;2023-05-07T05:59:13;8.00;;;5.28;;
10550;SDS011;5324;50.684;3.862;2023-05-07T06:01:39;8.82;;;6.00;;
10550;SDS011;5324;50.684;3.862;2023-05-07T06:04:05;11.80;;;6.13;;
10550;SDS011;5324;50.684;3.862;2023-05-07T06:06:31;8.35;;;5.72;;
10550;SDS011;5324;50.684;3.862;2023-05-07T06:08:57;7.93;;;5.45;;
10550;SDS011;5324;50.684;3.862;2023-05-07T06:11:23;6.65;;;5.85;;
10550;SDS011;5324;50.684;3.862;2023-05-07T06:13:50;9.32;;;6.00;;
10550;SDS011;5324;50.684;3.862;2023-05-07T06:16:16;10.25;;;5.70;;
10550;SDS011;5324;50.684;3.862;2023-05-07T06:18:42;9.32;;;5.70;;
10550;SDS011;5324;50.684;3.862;2023-05-07T06:21:10;10.50;;;6.15;;
10550;SDS011;5324;50.684;3.862;2023-05-07T06:23:36;9.75;;;5.90;;
10550;SDS011;5324;50.684;3.862;2023-05-07T06:26:02;7.03;;;6.00;;
10550;SDS011;5324;50.684;3.862;2023-05-07T06:28:28;8.32;;;5.70;;
10550;SDS011;5324;50.684;3.862;2023-05-07T06:30:55;8.93;;;5.75;;
10550;SDS011;5324;50.684;3.862;2023-05-07T06:33:21;8.23;;;6.07;;
10550;SDS011;5324;50.684;3.862;2023-05-07T06:35:47;7.65;;;6.00;;
10550;SDS011;5324;50.684;3.862;2023-05-07T06:38:13;8.82;;;6.22;;
10550;SDS011;5324;50.684;3.862;2023-05-07T06:40:39;8.57;;;5.85;;
10550;SDS011;5324;50.684;3.862;2023-05-07T06:43:05;8.75;;;5.97;;
10550;SDS011;5324;50.684;3.862;2023-05-07T06:45:31;9.18;;;5.75;;
10550;SDS011;5324;50.684;3.862;2023-05-07T06:47:57;6.93;;;5.85;;
10550;SDS011;5324;50.684;3.862;2023-05-07T06:50:24;8.38;;;6.57;;
10550;SDS011;5324;50.684;3.862;2023-05-07T06:52:50;8.80;;;6.53;;
10550;SDS011;5324;50.684;3.862;2023-05-07T06:55:16;6.70;;;5.97;;
10550;SDS011;5324;50.684;3.862;2023-05-07T06:57:42;11.85;;;6.38;;
10550;SDS011;5324;50.684;3.862;2023-05-07T07:00:08;7.75;;;5.93;;
10550;SDS011;5324;50.684;3.862;2023-05-07T07:02:34;7.07;;;6.20;;
10550;SDS011;5324;50.684;3.862;2023-05-07T07:05:01;8.40;;;6.40;;
10550;SDS011;5324;50.684;3.862;2023-05-07T07:07:27;10.25;;;5.88;;
10550;SDS011;5324;50.684;3.862;2023-05-07T07:09:52;11.45;;;6.65;;
10550;SDS011;5324;50.684;3.862;2023-05-07T07:12:18;7.50;;;6.22;;
10550;SDS011;5324;50.684;3.862;2023-05-07T07:14:45;9.25;;;6.30;;
10550;SDS011;5324;50.684;3.862;2023-05-07T07:17:11;8.20;;;5.85;;
10550;SDS011;5324;50.684;3.862;2023-05-07T07:19:36;7.35;;;6.05;;
10550;SDS011;5324;50.684;3.862;2023-05-07T07:22:03;6.07;;;5.25;;
10550;SDS011;5324;50.684;3.862;2023-05-07T07:24:29;12.05;;;6.20;;
10550;SDS011;5324;50.684;3.862;2023-05-07T07:26:55;7.72;;;6.28;;
10550;SDS011;5324;50.684;3.862;2023-05-07T07:29:22;10.13;;;6.13;;
10550;SDS011;5324;50.684;3.862;2023-05-07T07:31:50;5.82;;;5.18;;
10550;SDS011;5324;50.684;3.862;2023-05-07T07:34:16;6.43;;;5.32;;
10550;SDS011;5324;50.684;3.862;2023-05-07T07:36:42;9.20;;;5.13;;
10550;SDS011;5324;50.684;3.862;2023-05-07T07:39:08;7.57;;;5.47;;
10550;SDS011;5324;50.684;3.862;2023-05-07T07:41:34;8.15;;;5.32;;
10550;SDS011;5324;50.684;3.862;2023-05-07T07:44:00;5.45;;;4.95;;
10550;SDS011;5324;50.684;3.862;2023-05-07T07:46:28;8.00;;;5.20;;
10550;SDS011;5324;50.684;3.862;2023-05-07T07:48:54;6.85;;;4.95;;
10550;SDS011;5324;50.684;3.862;2023-05-07T07:51:23;7.10;;;4.28;;
10550;SDS011;5324;50.684;3.862;2023-05-07T07:53:49;7.00;;;4.03;;
10550;SDS011;5324;50.684;3.862;2023-05-07T07:56:15;5.30;;;4.40;;
10550;SDS011;5324;50.684;3.862;2023-05-07T07:58:41;7.30;;;4.35;;
10550;SDS011;5324;50.684;3.862;2023-05-07T08:01:07;6.50;;;4.05;;
10550;SDS011;5324;50.684;3.862;2023-05-07T08:03:33;6.47;;;4.28;;
10550;SDS011;5324;50.684;3.862;2023-05-07T08:06:00;5.45;;;3.92;;
10550;SDS011;5324;50.684;3.862;2023-05-07T08:08:26;6.60;;;3.92;;
10550;SDS011;5324;50.684;3.862;2023-05-07T08:10:52;6.72;;;4.18;;
10550;SDS011;5324;50.684;3.862;2023-05-07T08:13:18;5.28;;;3.85;;
10550;SDS011;5324;50.684;3.862;2023-05-07T08:15:44;6.25;;;3.80;;
10550;SDS011;5324;50.684;3.862;2023-05-07T08:18:10;6.25;;;3.85;;
10550;SDS011;5324;50.684;3.862;2023-05-07T08:20:36;7.43;;;4.50;;
10550;SDS011;5324;50.684;3.862;2023-05-07T08:23:04;5.57;;;4.75;;
10550;SDS011;5324;50.684;3.862;2023-05-07T08:25:32;5.60;;;4.00;;
10550;SDS011;5324;50.684;3.862;2023-05-07T08:27:59;8.52;;;4.88;;
10550;SDS011;5324;50.684;3.862;2023-05-07T08:30:25;6.55;;;4.03;;
10550;SDS011;5324;50.684;3.862;2023-05-07T08:32:51;5.70;;;4.57;;
10550;SDS011;5324;50.684;3.862;2023-05-07T08:35:17;6.18;;;4.70;;
10550;SDS011;5324;50.684;3.862;2023-05-07T08:37:43;6.35;;;4.43;;
10550;SDS011;5324;50.684;3.862;2023-05-07T08:40:09;8.05;;;4.47;;
10550;SDS011;5324;50.684;3.862;2023-05-07T08:42:35;7.47;;;5.10;;
10550;SDS011;5324;50.684;3.862;2023-05-07T08:45:05;7.38;;;5.47;;
10550;SDS011;5324;50.684;3.862;2023-05-07T08:47:38;6.00;;;5.50;;
10550;SDS011;5324;50.684;3.862;2023-05-07T08:50:06;7.63;;;5.47;;
10550;SDS011;5324;50.684;3.862;2023-05-07T08:52:32;7.10;;;4.88;;
10550;SDS011;5324;50.684;3.862;2023-05-07T08:54:58;7.32;;;5.55;;
10550;SDS011;5324;50.684;3.862;2023-05-07T08:57:24;6.90;;;5.78;;
10550;SDS011;5324;50.684;3.862;2023-05-07T08:59:50;6.72;;;5.75;;
10550;SDS011;5324;50.684;3.862;2023-05-07T09:02:17;6.40;;;5.55;;
10550;SDS011;5324;50.684;3.862;2023-05-07T09:04:43;8.98;;;5.75;;
10550;SDS011;5324;50.684;3.862;2023-05-07T09:07:09;7.00;;;6.13;;
10550;SDS011;5324;50.684;3.862;2023-05-07T09:09:35;6.68;;;6.00;;
10550;SDS011;5324;50.684;3.862;2023-05-07T09:12:02;6.35;;;5.68;;
10550;SDS011;5324;50.684;3.862;2023-05-07T09:14:28;6.80;;;5.78;;
10550;SDS011;5324;50.684;3.862;2023-05-07T09:16:57;6.63;;;5.80;;
10550;SDS011;5324;50.684;3.862;2023-05-07T09:19:24;6.28;;;5.35;;
10550;SDS011;5324;50.684;3.862;2023-05-07T09:21:57;7.90;;;5.50;;
10550;SDS011;5324;50.684;3.862;2023-05-07T09:24:24;7.30;;;5.68;;
10550;SDS011;5324;50.684;3.862;2023-05-07T09:26:50;7.45;;;5.60;;
10550;SDS011;5324;50.684;3.862;2023-05-07T09:29:16;5.75;;;5.18;;
10550;SDS011;5324;50.684;3.862;2023-05-07T09:31:42;6.53;;;5.43;;
10550;SDS011;5324;50.684;3.862;2023-05-07T09:34:08;5.90;;;4.90;;
10550;SDS011;5324;50.684;3.862;2023-05-07T09:36:34;6.32;;;5.20;;
10550;SDS011;5324;50.684;3.862;2023-05-07T09:39:01;6.85;;;5.13;;
10550;SDS011;5324;50.684;3.862;2023-05-07T09:41:27;6.72;;;5.10;;
10550;SDS011;5324;50.684;3.862;2023-05-07T09:43:57;6.45;;;5.28;;
10550;SDS011;5324;50.684;3.862;2023-05-07T09:46:28;5.53;;;5.03;;
10550;SDS011;5324;50.684;3.862;2023-05-07T09:48:56;6.13;;;5.40;;
10550;SDS011;5324;50.684;3.862;2023-05-07T09:51:29;6.68;;;5.50;;
10550;SDS011;5324;50.684;3.862;2023-05-07T09:53:56;6.18;;;5.10;;
10550;SDS011;5324;50.684;3.862;2023-05-07T09:56:25;7.15;;;5.03;;
10550;SDS011;5324;50.684;3.862;2023-05-07T09:58:52;5.82;;;5.18;;
10550;SDS011;5324;50.684;3.862;2023-05-07T10:01:18;5.97;;;5.40;;
10550;SDS011;5324;50.684;3.862;2023-05-07T10:03:47;6.07;;;5.47;;
10550;SDS011;5324;50.684;3.862;2023-05-07T10:06:15;6.22;;;5.63;;
10550;SDS011;5324;50.684;3.862;2023-05-07T10:08:42;6.82;;;6.15;;
10550;SDS011;5324;50.684;3.862;2023-05-07T10:11:08;5.88;;;5.28;;
10550;SDS011;5324;50.684;3.862;2023-05-07T10:13:35;6.45;;;5.72;;
10550;SDS011;5324;50.684;3.862;2023-05-07T10:16:05;6.00;;;5.40;;
10550;SDS011;5324;50.684;3.862;2023-05-07T10:18:31;6.03;;;5.10;;
10550;SDS011;5324;50.684;3.862;2023-05-07T10:21:00;6.50;;;5.90;;
10550;SDS011;5324;50.684;3.862;2023-05-07T10:23:27;7.88;;;6.43;;
10550;SDS011;5324;50.684;3.862;2023-05-07T10:25:54;6.50;;;5.90;;
10550;SDS011;5324;50.684;3.862;2023-05-07T10:28:21;8.10;;;6.90;;
10550;SDS011;5324;50.684;3.862;2023-05-07T10:33:32;7.43;;;6.72;;
10550;SDS011;5324;50.684;3.862;2023-05-07T10:36:00;7.25;;;6.60;;
10550;SDS011;5324;50.684;3.862;2023-05-07T10:38:29;6.90;;;6.20;;
10550;SDS011;5324;50.684;3.862;2023-05-07T10:40:55;8.07;;;6.30;;
10550;SDS011;5324;50.684;3.862;2023-05-07T10:43:22;9.30;;;5.97;;
10550;SDS011;5324;50.684;3.862;2023-05-07T10:46:09;6.00;;;5.30;;
10550;SDS011;5324;50.684;3.862;2023-05-07T10:48:34;4.60;;;4.15;;
10550;SDS011;5324;50.684;3.862;2023-05-07T10:56:41;4.00;;;3.58;;
10550;SDS011;5324;50.684;3.862;2023-05-07T11:01:54;4.03;;;3.38;;
10550;SDS011;5324;50.684;3.862;2023-05-07T11:04:21;4.18;;;3.75;;
10550;SDS011;5324;50.684;3.862;2023-05-07T11:12:18;4.35;;;3.90;;
10550;SDS011;5324;50.684;3.862;2023-05-07T11:15:07;4.90;;;4.40;;
10550;SDS011;5324;50.684;3.862;2023-05-07T11:17:34;4.90;;;4.28;;
10550;SDS011;5324;50.684;3.862;2023-05-07T11:20:00;4.53;;;4.13;;
10550;SDS011;5324;50.684;3.862;2023-05-07T11:25:00;5.18;;;4.50;;
10550;SDS011;5324;50.684;3.862;2023-05-07T11:27:27;4.70;;;4.35;;
10550;SDS011;5324;50.684;3.862;2023-05-07T11:29:53;4.65;;;4.20;;
10550;SDS011;5324;50.684;3.862;2023-05-07T11:32:26;5.35;;;4.47;;
10550;SDS011;5324;50.684;3.862;2023-05-07T11:34:57;4.60;;;4.15;;
10550;SDS011;5324;50.684;3.862;2023-05-07T11:37:23;4.85;;;4.35;;
10550;SDS011;5324;50.684;3.862;2023-05-07T11:39:51;4.40;;;4.00;;
10550;SDS011;5324;50.684;3.862;2023-05-07T11:42:31;4.78;;;4.28;;
10550;SDS011;5324;50.684;3.862;2023-05-07T11:44:57;4.55;;;4.15;;
10550;SDS011;5324;50.684;3.862;2023-05-07T11:47:23;4.60;;;4.18;;
10550;SDS011;5324;50.684;3.862;2023-05-07T11:49:53;4.85;;;3.92;;
10550;SDS011;5324;50.684;3.862;2023-05-07T11:52:23;4.75;;;4.28;;
10550;SDS011;5324;50.684;3.862;2023-05-07T11:54:53;5.57;;;4.18;;
10550;SDS011;5324;50.684;3.862;2023-05-07T11:57:20;5.18;;;4.00;;
10550;SDS011;5324;50.684;3.862;2023-05-07T11:59:47;4.40;;;4.00;;
10550;SDS011;5324;50.684;3.862;2023-05-07T12:02:13;4.38;;;3.80;;
10550;SDS011;5324;50.684;3.862;2023-05-07T12:04:40;5.15;;;4.35;;
10550;SDS011;5324;50.684;3.862;2023-05-07T12:07:13;4.50;;;4.10;;
10550;SDS011;5324;50.684;3.862;2023-05-07T12:09:39;4.45;;;4.03;;
10550;SDS011;5324;50.684;3.862;2023-05-07T12:12:06;4.05;;;3.35;;
10550;SDS011;5324;50.684;3.862;2023-05-07T12:14:32;4.70;;;4.30;;
10550;SDS011;5324;50.684;3.862;2023-05-07T12:16:59;3.63;;;3.35;;
10550;SDS011;5324;50.684;3.862;2023-05-07T12:19:28;4.75;;;4.35;;
10550;SDS011;5324;50.684;3.862;2023-05-07T12:21:54;5.30;;;3.92;;
10550;SDS011;5324;50.684;3.862;2023-05-07T12:24:21;4.82;;;3.88;;
10550;SDS011;5324;50.684;3.862;2023-05-07T12:26:47;5.35;;;4.40;;
10550;SDS011;5324;50.684;3.862;2023-05-07T12:29:14;5.28;;;4.15;;
10550;SDS011;5324;50.684;3.862;2023-05-07T12:31:40;4.55;;;4.13;;
10550;SDS011;5324;50.684;3.862;2023-05-07T12:34:06;6.53;;;3.78;;
10550;SDS011;5324;50.684;3.862;2023-05-07T12:36:37;3.97;;;3.60;;
10550;SDS011;5324;50.684;3.862;2023-05-07T12:39:04;5.05;;;3.88;;
10550;SDS011;5324;50.684;3.862;2023-05-07T12:41:30;4.28;;;3.97;;
10550;SDS011;5324;50.684;3.862;2023-05-07T12:44:01;4.22;;;3.83;;
10550;SDS011;5324;50.684;3.862;2023-05-07T12:46:30;4.32;;;3.80;;
10550;SDS011;5324;50.684;3.862;2023-05-07T12:48:56;4.22;;;3.83;;
10550;SDS011;5324;50.684;3.862;2023-05-07T12:51:22;5.13;;;3.78;;
10550;SDS011;5324;50.684;3.862;2023-05-07T12:53:48;4.55;;;4.15;;
10550;SDS011;5324;50.684;3.862;2023-05-07T12:56:15;5.07;;;4.43;;
10550;SDS011;5324;50.684;3.862;2023-05-07T12:58:44;4.82;;;4.30;;
10550;SDS011;5324;50.684;3.862;2023-05-07T13:01:10;4.88;;;4.40;;
10550;SDS011;5324;50.684;3.862;2023-05-07T13:03:40;6.15;;;3.95;;
10550;SDS011;5324;50.684;3.862;2023-05-07T13:06:09;4.78;;;4.35;;
10550;SDS011;5324;50.684;3.862;2023-05-07T13:08:38;5.20;;;4.10;;
10550;SDS011;5324;50.684;3.862;2023-05-07T13:11:10;4.90;;;4.40;;
10550;SDS011;5324;50.684;3.862;2023-05-07T13:13:37;4.35;;;4.03;;
10550;SDS011;5324;50.684;3.862;2023-05-07T13:16:04;5.00;;;4.50;;
10550;SDS011;5324;50.684;3.862;2023-05-07T13:18:31;4.53;;;4.13;;
10550;SDS011;5324;50.684;3.862;2023-05-07T13:20:57;5.00;;;4.50;;
10550;SDS011;5324;50.684;3.862;2023-05-07T13:23:23;6.15;;;4.75;;
10550;SDS011;5324;50.684;3.862;2023-05-07T13:25:49;4.38;;;3.97;;
10550;SDS011;5324;50.684;3.862;2023-05-07T13:28:17;4.20;;;3.80;;
10550;SDS011;5324;50.684;3.862;2023-05-07T13:30:43;3.70;;;3.40;;
10550;SDS011;5324;50.684;3.862;2023-05-07T13:33:09;3.88;;;3.40;;
10550;SDS011;5324;50.684;3.862;2023-05-07T13:35:36;3.67;;;3.38;;
10550;SDS011;5324;50.684;3.862;2023-05-07T13:38:02;4.00;;;3.60;;
10550;SDS011;5324;50.684;3.862;2023-05-07T13:40:28;3.97;;;3.67;;
10550;SDS011;5324;50.684;3.862;2023-05-07T13:42:56;4.70;;;3.80;;
10550;SDS011;5324;50.684;3.862;2023-05-07T13:45:23;4.72;;;4.32;;
10550;SDS011;5324;50.684;3.862;2023-05-07T13:47:54;4.97;;;3.97;;
10550;SDS011;5324;50.684;3.862;2023-05-07T13:50:20;3.88;;;3.58;;
10550;SDS011;5324;50.684;3.862;2023-05-07T13:52:46;5.60;;;4.30;;
10550;SDS011;5324;50.684;3.862;2023-05-07T13:55:19;4.43;;;3.72;;
10550;SDS011;5324;50.684;3.862;2023-05-07T13:57:45;6.65;;;3.88;;
10550;SDS011;5324;50.684;3.862;2023-05-07T14:00:12;3.85;;;3.50;;
10550;SDS011;5324;50.684;3.862;2023-05-07T14:02:39;4.53;;;3.67;;
10550;SDS011;5324;50.684;3.862;2023-05-07T14:05:06;5.10;;;3.88;;
10550;SDS011;5324;50.684;3.862;2023-05-07T14:07:32;4.47;;;3.80;;
10550;SDS011;5324;50.684;3.862;2023-05-07T14:09:58;3.97;;;3.20;;
10550;SDS011;5324;50.684;3.862;2023-05-07T14:12:24;4.10;;;3.80;;
10550;SDS011;5324;50.684;3.862;2023-05-07T14:14:50;4.32;;;3.92;;
10550;SDS011;5324;50.684;3.862;2023-05-07T14:17:17;6.63;;;4.13;;
10550;SDS011;5324;50.684;3.862;2023-05-07T14:19:43;6.47;;;3.78;;
10550;SDS011;5324;50.684;3.862;2023-05-07T14:22:09;4.63;;;4.22;;
10550;SDS011;5324;50.684;3.862;2023-05-07T14:24:35;5.72;;;3.92;;
10550;SDS011;5324;50.684;3.862;2023-05-07T14:27:02;4.97;;;4.20;;
10550;SDS011;5324;50.684;3.862;2023-05-07T14:29:28;5.93;;;4.80;;
10550;SDS011;5324;50.684;3.862;2023-05-07T14:31:54;6.45;;;4.85;;
10550;SDS011;5324;50.684;3.862;2023-05-07T14:34:20;5.57;;;5.05;;
10550;SDS011;5324;50.684;3.862;2023-05-07T14:36:46;5.43;;;4.50;;
10550;SDS011;5324;50.684;3.862;2023-05-07T14:39:12;5.22;;;4.70;;
10550;SDS011;5324;50.684;3.862;2023-05-07T14:41:38;5.05;;;4.60;;
10550;SDS011;5324;50.684;3.862;2023-05-07T14:44:04;5.50;;;4.53;;
10550;SDS011;5324;50.684;3.862;2023-05-07T14:46:31;4.53;;;4.20;;
10550;SDS011;5324;50.684;3.862;2023-05-07T14:48:57;5.15;;;4.18;;
10550;SDS011;5324;50.684;3.862;2023-05-07T14:51:23;5.28;;;4.78;;
10550;SDS011;5324;50.684;3.862;2023-05-07T14:53:50;5.18;;;4.72;;
10550;SDS011;5324;50.684;3.862;2023-05-07T14:56:16;5.28;;;4.65;;
10550;SDS011;5324;50.684;3.862;2023-05-07T14:58:43;6.13;;;5.13;;
10550;SDS011;5324;50.684;3.862;2023-05-07T15:01:09;5.20;;;4.70;;
10550;SDS011;5324;50.684;3.862;2023-05-07T15:03:35;4.82;;;4.32;;
10550;SDS011;5324;50.684;3.862;2023-05-07T15:06:02;6.63;;;4.80;;
10550;SDS011;5324;50.684;3.862;2023-05-07T15:08:28;5.45;;;4.80;;
10550;SDS011;5324;50.684;3.862;2023-05-07T15:10:54;5.80;;;4.90;;
10550;SDS011;5324;50.684;3.862;2023-05-07T15:13:20;4.72;;;4.32;;
10550;SDS011;5324;50.684;3.862;2023-05-07T15:15:46;5.10;;;4.63;;